sensor_id;sensor_type;location;lat;lon;timestamp;P1;durP1;ratioP1;P2;durP2;ratioP2
22922;SDS011;11627;51.322;22.816;2023-06-22T00:00:42;15.95;;;12.50;;
22922;SDS011;11627;51.322;22.816;2023-06-22T00:03:11;16.33;;;11.60;;
22922;SDS011;11627;51.322;22.816;2023-06-22T00:05:39;16.80;;;12.95;;
22922;SDS011;11627;51.322;22.816;2023-06-22T00:08:07;18.25;;;11.85;;
22922;SDS011;11627;51.322;22.816;2023-06-22T00:10:35;15.65;;;11.35;;
22922;SDS011;11627;51.322;22.816;2023-06-22T00:13:05;15.57;;;12.07;;
22922;SDS011;11627;51.322;22.816;2023-06-22T00:15:35;15.48;;;11.38;;
22922;SDS011;11627;51.322;22.816;2023-06-22T00:18:08;16.75;;;12.00;;
22922;SDS011;11627;51.322;22.816;2023-06-22T00:20:36;16.00;;;11.68;;
22922;SDS011;11627;51.322;22.816;2023-06-22T00:23:05;16.08;;;12.93;;
22922;SDS011;11627;51.322;22.816;2023-06-22T00:25:36;15.98;;;12.55;;
22922;SDS011;11627;51.322;22.816;2023-06-22T00:28:07;17.90;;;11.93;;
22922;SDS011;11627;51.322;22.816;2023-06-22T00:30:36;16.90;;;12.55;;
22922;SDS011;11627;51.322;22.816;2023-06-22T00:33:06;16.90;;;12.57;;
22922;SDS011;11627;51.322;22.816;2023-06-22T00:35:34;16.33;;;12.05;;
22922;SDS011;11627;51.322;22.816;2023-06-22T00:38:01;15.15;;;11.80;;
22922;SDS011;11627;51.322;22.816;2023-06-22T00:40:31;14.30;;;11.93;;
22922;SDS011;11627;51.322;22.816;2023-06-22T00:42:59;14.18;;;11.48;;
22922;SDS011;11627;51.322;22.816;2023-06-22T00:45:26;15.07;;;11.73;;
22922;SDS011;11627;51.322;22.816;2023-06-22T00:47:56;14.95;;;11.20;;
22922;SDS011;11627;51.322;22.816;2023-06-22T00:50:26;15.35;;;11.25;;
22922;SDS011;11627;51.322;22.816;2023-06-22T00:53:00;14.60;;;11.73;;
22922;SDS011;11627;51.322;22.816;2023-06-22T00:55:41;15.45;;;11.93;;
22922;SDS011;11627;51.322;22.816;2023-06-22T00:58:11;13.65;;;11.07;;
22922;SDS011;11627;51.322;22.816;2023-06-22T01:00:40;16.23;;;11.77;;
22922;SDS011;11627;51.322;22.816;2023-06-22T01:03:08;17.33;;;11.88;;
22922;SDS011;11627;51.322;22.816;2023-06-22T01:05:37;19.17;;;11.60;;
22922;SDS011;11627;51.322;22.816;2023-06-22T01:11:52;13.77;;;11.30;;
22922;SDS011;11627;51.322;22.816;2023-06-22T01:14:47;14.18;;;10.95;;
22922;SDS011;11627;51.322;22.816;2023-06-22T01:17:35;15.18;;;11.40;;
22922;SDS011;11627;51.322;22.816;2023-06-22T01:20:10;15.18;;;11.30;;
22922;SDS011;11627;51.322;22.816;2023-06-22T01:23:10;14.52;;;11.30;;
22922;SDS011;11627;51.322;22.816;2023-06-22T01:25:48;16.08;;;10.50;;
22922;SDS011;11627;51.322;22.816;2023-06-22T01:31:23;22.20;;;11.57;;
22922;SDS011;11627;51.322;22.816;2023-06-22T01:33:53;21.05;;;11.68;;
22922;SDS011;11627;51.322;22.816;2023-06-22T01:36:26;25.85;;;12.02;;
22922;SDS011;11627;51.322;22.816;2023-06-22T01:38:54;16.10;;;12.60;;
22922;SDS011;11627;51.322;22.816;2023-06-22T01:41:25;15.30;;;11.95;;
22922;SDS011;11627;51.322;22.816;2023-06-22T01:43:57;14.57;;;11.80;;
22922;SDS011;11627;51.322;22.816;2023-06-22T01:46:28;17.83;;;11.95;;
22922;SDS011;11627;51.322;22.816;2023-06-22T01:49:08;16.80;;;11.60;;
22922;SDS011;11627;51.322;22.816;2023-06-22T01:51:50;18.90;;;12.63;;
22922;SDS011;11627;51.322;22.816;2023-06-22T01:54:21;16.92;;;11.82;;
22922;SDS011;11627;51.322;22.816;2023-06-22T01:56:50;17.92;;;12.23;;
22922;SDS011;11627;51.322;22.816;2023-06-22T01:59:32;20.48;;;12.40;;
22922;SDS011;11627;51.322;22.816;2023-06-22T02:02:15;27.85;;;12.98;;
22922;SDS011;11627;51.322;22.816;2023-06-22T02:08:23;20.63;;;12.45;;
22922;SDS011;11627;51.322;22.816;2023-06-22T02:10:48;19.45;;;13.00;;
22922;SDS011;11627;51.322;22.816;2023-06-22T02:13:17;26.92;;;13.63;;
22922;SDS011;11627;51.322;22.816;2023-06-22T02:15:46;18.92;;;12.45;;
22922;SDS011;11627;51.322;22.816;2023-06-22T02:18:15;20.20;;;13.43;;
22922;SDS011;11627;51.322;22.816;2023-06-22T02:20:43;16.60;;;12.43;;
22922;SDS011;11627;51.322;22.816;2023-06-22T02:23:12;19.70;;;12.48;;
22922;SDS011;11627;51.322;22.816;2023-06-22T02:25:40;19.13;;;12.32;;
22922;SDS011;11627;51.322;22.816;2023-06-22T02:28:11;17.05;;;11.50;;
22922;SDS011;11627;51.322;22.816;2023-06-22T02:30:39;18.67;;;13.10;;
22922;SDS011;11627;51.322;22.816;2023-06-22T02:33:06;21.80;;;12.25;;
22922;SDS011;11627;51.322;22.816;2023-06-22T02:35:35;19.58;;;12.25;;
22922;SDS011;11627;51.322;22.816;2023-06-22T02:38:03;21.02;;;12.93;;
22922;SDS011;11627;51.322;22.816;2023-06-22T02:40:30;22.02;;;13.27;;
22922;SDS011;11627;51.322;22.816;2023-06-22T02:42:59;20.38;;;12.70;;
22922;SDS011;11627;51.322;22.816;2023-06-22T02:45:29;21.50;;;13.05;;
22922;SDS011;11627;51.322;22.816;2023-06-22T02:47:57;21.50;;;13.75;;
22922;SDS011;11627;51.322;22.816;2023-06-22T02:50:26;22.35;;;13.35;;
22922;SDS011;11627;51.322;22.816;2023-06-22T02:52:54;25.63;;;14.00;;
22922;SDS011;11627;51.322;22.816;2023-06-22T02:55:21;16.08;;;12.35;;
22922;SDS011;11627;51.322;22.816;2023-06-22T02:57:50;18.38;;;13.02;;
22922;SDS011;11627;51.322;22.816;2023-06-22T03:00:19;17.52;;;12.70;;
22922;SDS011;11627;51.322;22.816;2023-06-22T03:02:48;19.50;;;13.55;;
22922;SDS011;11627;51.322;22.816;2023-06-22T03:05:16;22.02;;;13.95;;
22922;SDS011;11627;51.322;22.816;2023-06-22T03:07:46;20.13;;;13.60;;
22922;SDS011;11627;51.322;22.816;2023-06-22T03:10:18;16.98;;;13.43;;
22922;SDS011;11627;51.322;22.816;2023-06-22T03:12:45;20.75;;;12.75;;
22922;SDS011;11627;51.322;22.816;2023-06-22T03:15:17;26.67;;;13.48;;
22922;SDS011;11627;51.322;22.816;2023-06-22T03:17:48;19.90;;;13.25;;
22922;SDS011;11627;51.322;22.816;2023-06-22T03:20:17;21.85;;;14.02;;
22922;SDS011;11627;51.322;22.816;2023-06-22T03:22:45;25.38;;;13.40;;
22922;SDS011;11627;51.322;22.816;2023-06-22T03:25:17;17.20;;;13.70;;
22922;SDS011;11627;51.322;22.816;2023-06-22T03:27:44;23.77;;;14.15;;
22922;SDS011;11627;51.322;22.816;2023-06-22T03:30:13;20.50;;;14.05;;
22922;SDS011;11627;51.322;22.816;2023-06-22T03:32:42;22.85;;;14.45;;
22922;SDS011;11627;51.322;22.816;2023-06-22T03:35:10;21.60;;;14.05;;
22922;SDS011;11627;51.322;22.816;2023-06-22T03:37:40;23.48;;;14.13;;
22922;SDS011;11627;51.322;22.816;2023-06-22T03:40:09;18.88;;;13.82;;
22922;SDS011;11627;51.322;22.816;2023-06-22T03:42:40;27.52;;;14.40;;
22922;SDS011;11627;51.322;22.816;2023-06-22T03:45:09;23.90;;;13.77;;
22922;SDS011;11627;51.322;22.816;2023-06-22T03:47:38;20.02;;;13.45;;
22922;SDS011;11627;51.322;22.816;2023-06-22T03:50:07;22.58;;;13.40;;
22922;SDS011;11627;51.322;22.816;2023-06-22T03:52:35;18.17;;;13.77;;
22922;SDS011;11627;51.322;22.816;2023-06-22T03:55:06;18.10;;;13.82;;
22922;SDS011;11627;51.322;22.816;2023-06-22T03:57:34;19.95;;;13.05;;
22922;SDS011;11627;51.322;22.816;2023-06-22T04:00:01;16.38;;;12.57;;
22922;SDS011;11627;51.322;22.816;2023-06-22T04:02:33;20.08;;;13.48;;
22922;SDS011;11627;51.322;22.816;2023-06-22T04:05:00;17.38;;;13.02;;
22922;SDS011;11627;51.322;22.816;2023-06-22T04:07:27;24.23;;;13.05;;
22922;SDS011;11627;51.322;22.816;2023-06-22T04:09:56;16.10;;;13.15;;
22922;SDS011;11627;51.322;22.816;2023-06-22T04:12:24;14.75;;;12.07;;
22922;SDS011;11627;51.322;22.816;2023-06-22T04:14:51;17.70;;;12.77;;
22922;SDS011;11627;51.322;22.816;2023-06-22T04:17:19;18.13;;;13.80;;
22922;SDS011;11627;51.322;22.816;2023-06-22T04:19:51;15.98;;;13.07;;
22922;SDS011;11627;51.322;22.816;2023-06-22T04:22:19;20.45;;;13.10;;
22922;SDS011;11627;51.322;22.816;2023-06-22T04:24:47;18.45;;;13.25;;
22922;SDS011;11627;51.322;22.816;2023-06-22T04:27:18;19.70;;;13.95;;
22922;SDS011;11627;51.322;22.816;2023-06-22T04:29:50;21.40;;;14.13;;
22922;SDS011;11627;51.322;22.816;2023-06-22T04:32:20;17.45;;;14.10;;
22922;SDS011;11627;51.322;22.816;2023-06-22T04:34:48;17.27;;;13.85;;
22922;SDS011;11627;51.322;22.816;2023-06-22T04:37:18;21.90;;;14.25;;
22922;SDS011;11627;51.322;22.816;2023-06-22T04:39:46;21.45;;;14.88;;
22922;SDS011;11627;51.322;22.816;2023-06-22T04:42:15;20.30;;;16.35;;
22922;SDS011;11627;51.322;22.816;2023-06-22T04:44:42;23.58;;;15.27;;
22922;SDS011;11627;51.322;22.816;2023-06-22T04:47:12;21.15;;;14.88;;
22922;SDS011;11627;51.322;22.816;2023-06-22T04:49:40;20.05;;;15.05;;
22922;SDS011;11627;51.322;22.816;2023-06-22T04:52:11;23.80;;;15.65;;
22922;SDS011;11627;51.322;22.816;2023-06-22T04:54:45;19.27;;;15.18;;
22922;SDS011;11627;51.322;22.816;2023-06-22T04:57:14;22.02;;;16.95;;
22922;SDS011;11627;51.322;22.816;2023-06-22T04:59:41;23.48;;;15.90;;
22922;SDS011;11627;51.322;22.816;2023-06-22T05:02:07;23.70;;;15.70;;
22922;SDS011;11627;51.322;22.816;2023-06-22T05:04:36;21.40;;;16.38;;
22922;SDS011;11627;51.322;22.816;2023-06-22T05:07:05;26.20;;;16.08;;
22922;SDS011;11627;51.322;22.816;2023-06-22T05:09:32;27.27;;;15.82;;
22922;SDS011;11627;51.322;22.816;2023-06-22T05:12:02;24.08;;;16.85;;
22922;SDS011;11627;51.322;22.816;2023-06-22T05:14:31;20.73;;;17.38;;
22922;SDS011;11627;51.322;22.816;2023-06-22T05:16:58;23.90;;;17.55;;
22922;SDS011;11627;51.322;22.816;2023-06-22T05:19:30;21.13;;;16.15;;
22922;SDS011;11627;51.322;22.816;2023-06-22T05:22:00;19.63;;;15.77;;
22922;SDS011;11627;51.322;22.816;2023-06-22T05:24:29;26.30;;;16.30;;
22922;SDS011;11627;51.322;22.816;2023-06-22T05:26:58;24.98;;;16.50;;
22922;SDS011;11627;51.322;22.816;2023-06-22T05:29:27;20.77;;;15.23;;
22922;SDS011;11627;51.322;22.816;2023-06-22T05:31:56;20.58;;;14.88;;
22922;SDS011;11627;51.322;22.816;2023-06-22T05:34:24;19.10;;;15.65;;
22922;SDS011;11627;51.322;22.816;2023-06-22T05:36:54;22.63;;;14.52;;
22922;SDS011;11627;51.322;22.816;2023-06-22T05:39:25;19.27;;;14.73;;
22922;SDS011;11627;51.322;22.816;2023-06-22T05:41:52;19.48;;;14.68;;
22922;SDS011;11627;51.322;22.816;2023-06-22T05:44:21;20.70;;;14.65;;
22922;SDS011;11627;51.322;22.816;2023-06-22T05:46:49;18.92;;;14.60;;
22922;SDS011;11627;51.322;22.816;2023-06-22T05:49:17;18.67;;;15.35;;
22922;SDS011;11627;51.322;22.816;2023-06-22T05:51:49;19.15;;;15.57;;
22922;SDS011;11627;51.322;22.816;2023-06-22T05:54:16;19.80;;;16.10;;
22922;SDS011;11627;51.322;22.816;2023-06-22T05:56:45;22.10;;;14.88;;
22922;SDS011;11627;51.322;22.816;2023-06-22T05:59:13;19.95;;;15.25;;
22922;SDS011;11627;51.322;22.816;2023-06-22T06:01:43;20.48;;;15.52;;
22922;SDS011;11627;51.322;22.816;2023-06-22T06:04:17;18.35;;;14.93;;
22922;SDS011;11627;51.322;22.816;2023-06-22T06:06:46;17.75;;;14.57;;
22922;SDS011;11627;51.322;22.816;2023-06-22T06:09:14;21.25;;;15.70;;
22922;SDS011;11627;51.322;22.816;2023-06-22T06:11:43;19.02;;;14.30;;
22922;SDS011;11627;51.322;22.816;2023-06-22T06:14:12;18.88;;;14.60;;
22922;SDS011;11627;51.322;22.816;2023-06-22T06:16:40;20.08;;;15.15;;
22922;SDS011;11627;51.322;22.816;2023-06-22T06:19:08;22.27;;;16.05;;
22922;SDS011;11627;51.322;22.816;2023-06-22T06:21:37;20.67;;;16.25;;
22922;SDS011;11627;51.322;22.816;2023-06-22T06:24:05;20.60;;;16.50;;
22922;SDS011;11627;51.322;22.816;2023-06-22T06:26:33;22.15;;;16.67;;
22922;SDS011;11627;51.322;22.816;2023-06-22T06:29:00;21.75;;;16.85;;
22922;SDS011;11627;51.322;22.816;2023-06-22T06:31:28;28.15;;;17.55;;
22922;SDS011;11627;51.322;22.816;2023-06-22T06:33:56;24.27;;;17.52;;
22922;SDS011;11627;51.322;22.816;2023-06-22T06:36:23;21.67;;;17.83;;
22922;SDS011;11627;51.322;22.816;2023-06-22T06:38:50;22.60;;;18.35;;
22922;SDS011;11627;51.322;22.816;2023-06-22T06:41:17;22.42;;;17.08;;
22922;SDS011;11627;51.322;22.816;2023-06-22T06:43:44;23.35;;;18.52;;
22922;SDS011;11627;51.322;22.816;2023-06-22T06:46:13;24.05;;;18.20;;
22922;SDS011;11627;51.322;22.816;2023-06-22T06:48:40;23.25;;;19.20;;
22922;SDS011;11627;51.322;22.816;2023-06-22T06:51:09;22.65;;;18.35;;
22922;SDS011;11627;51.322;22.816;2023-06-22T06:53:37;23.55;;;18.77;;
22922;SDS011;11627;51.322;22.816;2023-06-22T06:56:05;27.33;;;19.17;;
22922;SDS011;11627;51.322;22.816;2023-06-22T06:58:32;26.23;;;19.95;;
22922;SDS011;11627;51.322;22.816;2023-06-22T07:01:00;25.35;;;19.73;;
22922;SDS011;11627;51.322;22.816;2023-06-22T07:03:29;27.02;;;21.77;;
22922;SDS011;11627;51.322;22.816;2023-06-22T07:05:56;25.92;;;19.63;;
22922;SDS011;11627;51.322;22.816;2023-06-22T07:08:25;24.73;;;19.05;;
22922;SDS011;11627;51.322;22.816;2023-06-22T07:10:53;26.33;;;18.85;;
22922;SDS011;11627;51.322;22.816;2023-06-22T07:13:22;24.45;;;19.42;;
22922;SDS011;11627;51.322;22.816;2023-06-22T07:15:50;27.70;;;22.08;;
22922;SDS011;11627;51.322;22.816;2023-06-22T07:18:18;25.50;;;20.98;;
22922;SDS011;11627;51.322;22.816;2023-06-22T07:20:47;28.02;;;21.70;;
22922;SDS011;11627;51.322;22.816;2023-06-22T07:23:16;25.80;;;20.98;;
22922;SDS011;11627;51.322;22.816;2023-06-22T07:25:44;26.27;;;19.45;;
22922;SDS011;11627;51.322;22.816;2023-06-22T07:28:12;27.08;;;19.88;;
22922;SDS011;11627;51.322;22.816;2023-06-22T07:30:42;29.25;;;19.08;;
22922;SDS011;11627;51.322;22.816;2023-06-22T07:33:11;24.80;;;18.63;;
22922;SDS011;11627;51.322;22.816;2023-06-22T07:35:39;23.17;;;18.80;;
22922;SDS011;11627;51.322;22.816;2023-06-22T07:38:08;25.48;;;19.67;;
22922;SDS011;11627;51.322;22.816;2023-06-22T07:40:36;27.33;;;20.02;;
22922;SDS011;11627;51.322;22.816;2023-06-22T07:43:05;27.17;;;19.98;;
22922;SDS011;11627;51.322;22.816;2023-06-22T07:45:32;27.42;;;20.50;;
22922;SDS011;11627;51.322;22.816;2023-06-22T07:48:02;25.10;;;20.38;;
22922;SDS011;11627;51.322;22.816;2023-06-22T07:50:30;26.63;;;19.48;;
22922;SDS011;11627;51.322;22.816;2023-06-22T07:52:58;25.08;;;19.20;;
22922;SDS011;11627;51.322;22.816;2023-06-22T07:55:25;23.23;;;19.45;;
22922;SDS011;11627;51.322;22.816;2023-06-22T07:57:52;24.63;;;19.48;;
22922;SDS011;11627;51.322;22.816;2023-06-22T08:00:19;23.35;;;19.10;;
22922;SDS011;11627;51.322;22.816;2023-06-22T08:02:46;24.50;;;20.55;;
22922;SDS011;11627;51.322;22.816;2023-06-22T08:05:13;21.58;;;18.38;;
22922;SDS011;11627;51.322;22.816;2023-06-22T08:07:39;25.95;;;19.83;;
22922;SDS011;11627;51.322;22.816;2023-06-22T08:10:10;28.55;;;20.27;;
22922;SDS011;11627;51.322;22.816;2023-06-22T08:12:37;28.35;;;19.85;;
22922;SDS011;11627;51.322;22.816;2023-06-22T08:15:05;26.42;;;18.90;;
22922;SDS011;11627;51.322;22.816;2023-06-22T08:17:32;30.08;;;18.25;;
22922;SDS011;11627;51.322;22.816;2023-06-22T08:19:58;24.42;;;17.55;;
22922;SDS011;11627;51.322;22.816;2023-06-22T08:22:25;21.70;;;18.23;;
22922;SDS011;11627;51.322;22.816;2023-06-22T08:24:50;21.63;;;18.02;;
22922;SDS011;11627;51.322;22.816;2023-06-22T08:27:18;26.60;;;18.85;;
22922;SDS011;11627;51.322;22.816;2023-06-22T08:29:46;28.30;;;19.48;;
22922;SDS011;11627;51.322;22.816;2023-06-22T08:32:13;29.02;;;21.95;;
22922;SDS011;11627;51.322;22.816;2023-06-22T08:34:39;25.88;;;20.73;;
22922;SDS011;11627;51.322;22.816;2023-06-22T08:37:10;26.90;;;20.40;;
22922;SDS011;11627;51.322;22.816;2023-06-22T08:39:37;29.20;;;18.77;;
22922;SDS011;11627;51.322;22.816;2023-06-22T08:42:05;28.63;;;19.95;;
22922;SDS011;11627;51.322;22.816;2023-06-22T08:44:32;27.20;;;20.15;;
22922;SDS011;11627;51.322;22.816;2023-06-22T08:46:58;31.35;;;22.02;;
22922;SDS011;11627;51.322;22.816;2023-06-22T08:49:24;24.40;;;20.80;;
22922;SDS011;11627;51.322;22.816;2023-06-22T08:51:51;28.02;;;20.90;;
22922;SDS011;11627;51.322;22.816;2023-06-22T08:54:23;36.45;;;29.60;;
22922;SDS011;11627;51.322;22.816;2023-06-22T08:56:49;28.10;;;21.38;;
22922;SDS011;11627;51.322;22.816;2023-06-22T08:59:17;27.20;;;22.10;;
22922;SDS011;11627;51.322;22.816;2023-06-22T09:01:46;25.75;;;20.63;;
22922;SDS011;11627;51.322;22.816;2023-06-22T09:04:13;31.13;;;22.23;;
22922;SDS011;11627;51.322;22.816;2023-06-22T09:06:43;29.42;;;22.55;;
22922;SDS011;11627;51.322;22.816;2023-06-22T09:09:18;27.67;;;21.08;;
22922;SDS011;11627;51.322;22.816;2023-06-22T09:11:46;27.45;;;21.48;;
22922;SDS011;11627;51.322;22.816;2023-06-22T09:14:14;27.13;;;20.75;;
22922;SDS011;11627;51.322;22.816;2023-06-22T09:16:40;25.55;;;20.83;;
22922;SDS011;11627;51.322;22.816;2023-06-22T09:19:07;25.88;;;20.67;;
22922;SDS011;11627;51.322;22.816;2023-06-22T09:21:32;28.00;;;20.88;;
22922;SDS011;11627;51.322;22.816;2023-06-22T09:23:58;26.77;;;22.23;;
22922;SDS011;11627;51.322;22.816;2023-06-22T09:26:27;31.13;;;20.83;;
22922;SDS011;11627;51.322;22.816;2023-06-22T09:28:54;26.02;;;21.20;;
22922;SDS011;11627;51.322;22.816;2023-06-22T09:31:31;24.95;;;20.58;;
22922;SDS011;11627;51.322;22.816;2023-06-22T09:33:58;27.13;;;21.33;;
22922;SDS011;11627;51.322;22.816;2023-06-22T09:36:25;26.33;;;21.70;;
22922;SDS011;11627;51.322;22.816;2023-06-22T09:38:51;26.92;;;22.58;;
22922;SDS011;11627;51.322;22.816;2023-06-22T09:41:24;25.38;;;21.73;;
22922;SDS011;11627;51.322;22.816;2023-06-22T09:43:51;28.35;;;22.70;;
22922;SDS011;11627;51.322;22.816;2023-06-22T09:46:20;28.40;;;22.23;;
22922;SDS011;11627;51.322;22.816;2023-06-22T09:48:50;24.17;;;20.52;;
22922;SDS011;11627;51.322;22.816;2023-06-22T09:51:17;25.75;;;20.85;;
22922;SDS011;11627;51.322;22.816;2023-06-22T09:53:46;26.27;;;20.80;;
22922;SDS011;11627;51.322;22.816;2023-06-22T09:56:13;26.77;;;20.35;;
22922;SDS011;11627;51.322;22.816;2023-06-22T09:58:44;27.88;;;20.50;;
22922;SDS011;11627;51.322;22.816;2023-06-22T10:01:11;24.35;;;20.55;;
22922;SDS011;11627;51.322;22.816;2023-06-22T10:03:42;25.48;;;20.80;;
22922;SDS011;11627;51.322;22.816;2023-06-22T10:06:10;28.83;;;21.60;;
22922;SDS011;11627;51.322;22.816;2023-06-22T10:08:40;26.92;;;22.08;;
22922;SDS011;11627;51.322;22.816;2023-06-22T10:11:07;25.20;;;21.13;;
22922;SDS011;11627;51.322;22.816;2023-06-22T10:13:37;25.55;;;20.42;;
22922;SDS011;11627;51.322;22.816;2023-06-22T10:16:06;27.88;;;21.75;;
22922;SDS011;11627;51.322;22.816;2023-06-22T10:18:44;31.52;;;22.13;;
22922;SDS011;11627;51.322;22.816;2023-06-22T10:21:11;24.08;;;21.48;;
22922;SDS011;11627;51.322;22.816;2023-06-22T10:23:39;25.77;;;20.67;;
22922;SDS011;11627;51.322;22.816;2023-06-22T10:26:05;24.40;;;21.80;;
22922;SDS011;11627;51.322;22.816;2023-06-22T10:28:31;24.15;;;20.98;;
22922;SDS011;11627;51.322;22.816;2023-06-22T10:30:57;22.63;;;20.27;;
22922;SDS011;11627;51.322;22.816;2023-06-22T10:33:23;24.42;;;19.83;;
22922;SDS011;11627;51.322;22.816;2023-06-22T10:35:48;23.73;;;20.73;;
22922;SDS011;11627;51.322;22.816;2023-06-22T10:38:14;25.92;;;20.42;;
22922;SDS011;11627;51.322;22.816;2023-06-22T10:40:41;27.95;;;21.95;;
22922;SDS011;11627;51.322;22.816;2023-06-22T10:43:07;35.95;;;27.92;;
22922;SDS011;11627;51.322;22.816;2023-06-22T10:45:32;39.03;;;30.13;;
22922;SDS011;11627;51.322;22.816;2023-06-22T10:47:58;43.22;;;33.38;;
22922;SDS011;11627;51.322;22.816;2023-06-22T10:50:25;50.92;;;38.33;;
22922;SDS011;11627;51.322;22.816;2023-06-22T10:52:51;45.30;;;35.25;;
22922;SDS011;11627;51.322;22.816;2023-06-22T10:55:17;41.55;;;34.03;;
22922;SDS011;11627;51.322;22.816;2023-06-22T10:57:43;46.58;;;36.60;;
22922;SDS011;11627;51.322;22.816;2023-06-22T11:00:12;30.73;;;24.88;;
22922;SDS011;11627;51.322;22.816;2023-06-22T11:02:39;35.13;;;27.90;;
22922;SDS011;11627;51.322;22.816;2023-06-22T11:05:05;34.97;;;29.42;;
22922;SDS011;11627;51.322;22.816;2023-06-22T11:07:31;43.95;;;36.40;;
22922;SDS011;11627;51.322;22.816;2023-06-22T11:09:57;44.42;;;35.47;;
22922;SDS011;11627;51.322;22.816;2023-06-22T11:12:23;41.03;;;32.70;;
22922;SDS011;11627;51.322;22.816;2023-06-22T11:14:49;45.33;;;35.55;;
22922;SDS011;11627;51.322;22.816;2023-06-22T11:17:16;41.03;;;32.20;;
22922;SDS011;11627;51.322;22.816;2023-06-22T11:19:43;46.72;;;37.38;;
22922;SDS011;11627;51.322;22.816;2023-06-22T11:22:10;49.67;;;41.22;;
22922;SDS011;11627;51.322;22.816;2023-06-22T11:24:35;38.65;;;31.27;;
22922;SDS011;11627;51.322;22.816;2023-06-22T11:27:01;35.67;;;29.95;;
22922;SDS011;11627;51.322;22.816;2023-06-22T11:29:27;42.63;;;32.28;;
22922;SDS011;11627;51.322;22.816;2023-06-22T11:31:53;38.53;;;31.73;;
22922;SDS011;11627;51.322;22.816;2023-06-22T11:34:19;29.42;;;24.70;;
22922;SDS011;11627;51.322;22.816;2023-06-22T11:36:45;26.35;;;20.88;;
22922;SDS011;11627;51.322;22.816;2023-06-22T11:39:12;26.33;;;20.60;;
22922;SDS011;11627;51.322;22.816;2023-06-22T11:41:39;26.60;;;22.25;;
22922;SDS011;11627;51.322;22.816;2023-06-22T11:44:06;37.00;;;27.38;;
22922;SDS011;11627;51.322;22.816;2023-06-22T11:46:33;43.25;;;33.15;;
22922;SDS011;11627;51.322;22.816;2023-06-22T11:49:00;39.88;;;30.95;;
22922;SDS011;11627;51.322;22.816;2023-06-22T11:51:26;33.50;;;29.05;;
22922;SDS011;11627;51.322;22.816;2023-06-22T11:53:58;35.13;;;26.90;;
22922;SDS011;11627;51.322;22.816;2023-06-22T11:56:28;31.77;;;26.50;;
22922;SDS011;11627;51.322;22.816;2023-06-22T11:58:54;31.65;;;26.83;;
22922;SDS011;11627;51.322;22.816;2023-06-22T12:01:20;31.52;;;28.08;;
22922;SDS011;11627;51.322;22.816;2023-06-22T12:03:46;32.55;;;26.65;;
22922;SDS011;11627;51.322;22.816;2023-06-22T12:06:13;29.90;;;26.50;;
22922;SDS011;11627;51.322;22.816;2023-06-22T12:08:39;32.05;;;23.95;;
22922;SDS011;11627;51.322;22.816;2023-06-22T12:11:04;26.05;;;21.52;;
22922;SDS011;11627;51.322;22.816;2023-06-22T12:13:30;27.35;;;22.58;;
22922;SDS011;11627;51.322;22.816;2023-06-22T12:15:56;26.92;;;21.27;;
22922;SDS011;11627;51.322;22.816;2023-06-22T12:18:22;23.23;;;19.10;;
22922;SDS011;11627;51.322;22.816;2023-06-22T12:20:48;22.33;;;18.75;;
22922;SDS011;11627;51.322;22.816;2023-06-22T12:23:14;20.65;;;15.85;;
22922;SDS011;11627;51.322;22.816;2023-06-22T12:25:40;19.02;;;15.95;;
22922;SDS011;11627;51.322;22.816;2023-06-22T12:28:06;22.70;;;15.50;;
22922;SDS011;11627;51.322;22.816;2023-06-22T12:30:34;16.55;;;14.70;;
22922;SDS011;11627;51.322;22.816;2023-06-22T12:33:00;16.20;;;14.50;;
22922;SDS011;11627;51.322;22.816;2023-06-22T12:35:26;15.90;;;14.20;;
22922;SDS011;11627;51.322;22.816;2023-06-22T12:37:52;18.63;;;14.23;;
22922;SDS011;11627;51.322;22.816;2023-06-22T12:40:18;18.50;;;13.73;;
22922;SDS011;11627;51.322;22.816;2023-06-22T12:42:44;15.43;;;13.63;;
22922;SDS011;11627;51.322;22.816;2023-06-22T12:45:11;15.23;;;13.32;;
22922;SDS011;11627;51.322;22.816;2023-06-22T12:47:37;15.75;;;12.30;;
22922;SDS011;11627;51.322;22.816;2023-06-22T12:50:02;14.82;;;13.13;;
22922;SDS011;11627;51.322;22.816;2023-06-22T12:52:30;16.52;;;13.00;;
22922;SDS011;11627;51.322;22.816;2023-06-22T12:54:57;19.15;;;13.35;;
22922;SDS011;11627;51.322;22.816;2023-06-22T12:57:23;16.08;;;12.75;;
22922;SDS011;11627;51.322;22.816;2023-06-22T12:59:50;15.00;;;12.80;;
22922;SDS011;11627;51.322;22.816;2023-06-22T13:02:16;16.13;;;12.52;;
22922;SDS011;11627;51.322;22.816;2023-06-22T13:04:42;14.15;;;12.68;;
22922;SDS011;11627;51.322;22.816;2023-06-22T13:07:09;12.48;;;11.25;;
22922;SDS011;11627;51.322;22.816;2023-06-22T13:09:36;13.95;;;11.95;;
22922;SDS011;11627;51.322;22.816;2023-06-22T13:12:04;13.02;;;11.60;;
22922;SDS011;11627;51.322;22.816;2023-06-22T13:14:32;14.23;;;11.70;;
22922;SDS011;11627;51.322;22.816;2023-06-22T13:16:59;12.95;;;11.38;;
22922;SDS011;11627;51.322;22.816;2023-06-22T13:19:26;14.63;;;11.90;;
22922;SDS011;11627;51.322;22.816;2023-06-22T13:21:55;14.98;;;11.63;;
22922;SDS011;11627;51.322;22.816;2023-06-22T13:24:22;14.38;;;12.05;;
22922;SDS011;11627;51.322;22.816;2023-06-22T13:26:48;13.02;;;11.55;;
22922;SDS011;11627;51.322;22.816;2023-06-22T13:29:16;15.32;;;12.38;;
22922;SDS011;11627;51.322;22.816;2023-06-22T13:31:44;14.55;;;11.85;;
22922;SDS011;11627;51.322;22.816;2023-06-22T13:34:11;14.70;;;11.43;;
22922;SDS011;11627;51.322;22.816;2023-06-22T13:36:39;12.60;;;11.30;;
22922;SDS011;11627;51.322;22.816;2023-06-22T13:39:04;13.93;;;11.23;;
22922;SDS011;11627;51.322;22.816;2023-06-22T13:41:31;14.05;;;11.18;;
22922;SDS011;11627;51.322;22.816;2023-06-22T13:43:59;16.10;;;11.13;;
22922;SDS011;11627;51.322;22.816;2023-06-22T13:46:27;13.38;;;10.00;;
22922;SDS011;11627;51.322;22.816;2023-06-22T13:48:53;13.57;;;9.75;;
22922;SDS011;11627;51.322;22.816;2023-06-22T13:51:20;11.70;;;9.25;;
22922;SDS011;11627;51.322;22.816;2023-06-22T13:53:48;10.23;;;9.23;;
22922;SDS011;11627;51.322;22.816;2023-06-22T13:56:15;28.67;;;11.95;;
22922;SDS011;11627;51.322;22.816;2023-06-22T13:58:42;10.85;;;8.68;;
22922;SDS011;11627;51.322;22.816;2023-06-22T14:01:10;11.63;;;8.25;;
22922;SDS011;11627;51.322;22.816;2023-06-22T14:03:37;17.48;;;10.00;;
22922;SDS011;11627;51.322;22.816;2023-06-22T14:06:07;11.52;;;8.82;;
22922;SDS011;11627;51.322;22.816;2023-06-22T14:08:36;10.93;;;9.57;;
22922;SDS011;11627;51.322;22.816;2023-06-22T14:11:04;11.68;;;9.43;;
22922;SDS011;11627;51.322;22.816;2023-06-22T14:13:32;14.70;;;8.77;;
22922;SDS011;11627;51.322;22.816;2023-06-22T14:15:59;11.50;;;8.80;;
22922;SDS011;11627;51.322;22.816;2023-06-22T14:18:26;11.88;;;8.68;;
22922;SDS011;11627;51.322;22.816;2023-06-22T14:20:53;12.23;;;9.18;;
22922;SDS011;11627;51.322;22.816;2023-06-22T14:23:20;8.73;;;7.57;;
22922;SDS011;11627;51.322;22.816;2023-06-22T14:25:48;9.25;;;7.63;;